createdAt,value
2019-02-22T00:00:34.789Z,4.00
2019-02-22T00:01:34.785Z,4.00
2019-02-22T00:02:34.779Z,4.00
2019-02-22T00:03:34.752Z,4.00
2019-02-22T00:04:34.743Z,4.00
2019-02-22T00:05:34.729Z,4.00
2019-02-22T00:06:34.717Z,4.00
2019-02-22T00:07:34.756Z,0.00
2019-02-22T00:08:34.696Z,4.00
2019-02-22T00:09:34.684Z,4.00
2019-02-22T00:10:34.671Z,4.00
2019-02-22T00:11:34.661Z,4.00
2019-02-22T00:12:34.664Z,0.00
2019-02-22T00:13:34.648Z,4.00
2019-02-22T00:14:34.626Z,4.00
2019-02-22T00:15:36.276Z,0.00
2019-02-22T00:16:34.605Z,4.00
2019-02-22T00:17:34.625Z,0.00
2019-02-22T00:18:34.582Z,0.00
2019-02-22T00:19:34.575Z,0.00
2019-02-22T00:20:34.559Z,0.00
2019-02-22T00:21:34.549Z,0.00
2019-02-22T00:22:34.568Z,0.00
2019-02-22T00:23:34.524Z,0.00
2019-02-22T00:24:34.512Z,0.00
2019-02-22T00:25:34.508Z,0.00
2019-02-22T00:26:34.489Z,0.00
2019-02-22T00:27:34.487Z,0.00
2019-02-22T00:28:34.484Z,0.00
2019-02-22T00:29:34.455Z,0.00
2019-02-22T00:30:34.447Z,0.00
2019-02-22T00:31:34.444Z,0.00
2019-02-22T00:32:34.423Z,0.00
2019-02-22T00:33:34.426Z,0.00
2019-02-22T00:34:34.540Z,0.00
2019-02-22T00:35:34.539Z,0.00
2019-02-22T00:36:34.528Z,0.00
2019-02-22T00:37:34.371Z,0.00
2019-02-22T00:38:34.367Z,0.00
2019-02-22T00:39:34.341Z,0.00
2019-02-22T00:40:34.329Z,0.00
2019-02-22T00:41:34.318Z,0.00
2019-02-22T00:42:34.307Z,0.00
2019-02-22T00:43:34.322Z,0.00
2019-02-22T00:44:34.286Z,0.00
2019-02-22T00:45:34.273Z,0.00
2019-02-22T00:46:34.264Z,0.00
2019-02-22T00:47:34.251Z,0.00
2019-02-22T00:48:34.257Z,0.00
2019-02-22T00:49:34.240Z,0.00
2019-02-22T00:50:34.240Z,0.00
2019-02-22T00:51:34.207Z,0.00
2019-02-22T00:52:34.196Z,0.00
2019-02-22T00:53:34.199Z,0.00
2019-02-22T00:54:34.170Z,0.00
2019-02-22T00:55:34.184Z,0.00
2019-02-22T00:56:34.147Z,0.00
2019-02-22T00:57:34.137Z,0.00
2019-02-22T00:58:34.141Z,0.00
2019-02-22T00:59:34.115Z,0.00
2019-02-22T01:00:34.103Z,0.00
2019-02-22T01:01:34.099Z,0.00
2019-02-22T01:02:34.081Z,0.00
2019-02-22T01:03:34.084Z,0.00
2019-02-22T01:04:34.055Z,0.00
2019-02-22T01:05:34.045Z,0.00
2019-02-22T01:06:34.034Z,0.00
2019-02-22T01:07:34.034Z,0.00
2019-02-22T01:08:34.028Z,0.00
2019-02-22T01:09:33.999Z,0.00
2019-02-22T01:10:33.988Z,0.00
2019-02-22T01:11:33.977Z,0.00
2019-02-22T01:12:33.964Z,0.00
2019-02-22T01:13:33.976Z,0.00
2019-02-22T01:14:33.942Z,0.00
2019-02-22T01:15:33.930Z,0.00
2019-02-22T01:16:33.919Z,0.00
2019-02-22T01:17:33.911Z,0.00
2019-02-22T01:18:33.914Z,0.00
2019-02-22T01:19:33.903Z,0.00
2019-02-22T01:20:33.873Z,0.00
2019-02-22T01:21:33.861Z,0.00
2019-02-22T01:22:33.855Z,0.00
2019-02-22T01:23:33.855Z,0.00
2019-02-22T01:24:33.829Z,0.00
2019-02-22T01:25:33.828Z,0.00
2019-02-22T01:26:33.805Z,0.00
2019-02-22T01:27:33.793Z,0.00
2019-02-22T01:28:33.798Z,0.00
2019-02-22T01:29:33.770Z,0.00
2019-02-22T01:30:33.769Z,0.00
2019-02-22T01:31:33.769Z,0.00
2019-02-22T01:32:33.735Z,0.00
2019-02-22T01:33:33.739Z,0.00
2019-02-22T01:34:33.719Z,0.00
2019-02-22T01:35:33.701Z,0.00
2019-02-22T01:36:33.692Z,0.00
2019-02-22T01:37:33.688Z,0.00
2019-02-22T01:38:33.682Z,0.00
2019-02-22T01:39:33.658Z,0.00
2019-02-22T01:40:43.093Z,0.00
2019-02-22T01:41:34.636Z,0.00
2019-02-22T01:42:33.626Z,0.00
2019-02-22T01:43:33.622Z,0.00
2019-02-22T01:44:33.629Z,0.00
2019-02-22T01:45:33.592Z,0.00
2019-02-22T01:46:33.584Z,0.00
2019-02-22T01:47:33.570Z,0.00
2019-02-22T01:48:33.555Z,0.00
2019-02-22T01:49:33.570Z,0.00
2019-02-22T01:50:33.534Z,0.00
2019-02-22T01:51:33.522Z,0.00
2019-02-22T01:52:33.510Z,0.00
2019-02-22T01:53:33.502Z,0.00
2019-02-22T01:54:33.505Z,0.00
2019-02-22T01:55:33.484Z,0.00
2019-02-22T01:56:33.466Z,0.00
2019-02-22T01:57:33.465Z,0.00
2019-02-22T01:58:33.443Z,0.00
2019-02-22T01:59:33.448Z,0.00
2019-02-22T02:00:33.422Z,0.00
2019-02-22T02:01:33.416Z,0.00
2019-02-22T02:02:33.400Z,0.00
2019-02-22T02:03:33.387Z,0.00
2019-02-22T02:04:33.392Z,0.00
2019-02-22T02:05:33.365Z,0.00
2019-02-22T02:06:33.364Z,0.00
2019-02-22T02:07:33.355Z,0.00
2019-02-22T02:08:33.333Z,0.00
2019-02-22T02:09:33.339Z,0.00
2019-02-22T02:10:33.314Z,0.00
2019-02-22T02:11:33.300Z,0.00
2019-02-22T02:12:33.289Z,0.00
2019-02-22T02:13:33.285Z,0.00
2019-02-22T02:14:33.281Z,0.00
2019-02-22T02:15:33.255Z,0.00
2019-02-22T02:16:33.244Z,0.00
2019-02-22T02:17:33.233Z,0.00
2019-02-22T02:18:33.227Z,0.00
2019-02-22T02:19:33.234Z,0.00
2019-02-22T02:20:33.205Z,0.00
2019-02-22T02:21:33.196Z,0.00
2019-02-22T02:22:33.179Z,0.00
2019-02-22T02:23:33.166Z,0.00
2019-02-22T02:24:33.173Z,0.00
2019-02-22T02:25:33.151Z,0.00
2019-02-22T02:26:33.136Z,0.00
2019-02-22T02:27:33.123Z,0.00
2019-02-22T02:28:33.112Z,0.00
2019-02-22T02:29:33.113Z,0.00
2019-02-22T02:30:33.088Z,0.00
2019-02-22T02:31:33.087Z,0.00
2019-02-22T02:32:33.066Z,0.00
2019-02-22T02:33:33.057Z,0.00
2019-02-22T02:34:33.063Z,0.00
2019-02-22T02:35:33.037Z,0.00
2019-02-22T02:36:33.025Z,0.00
2019-02-22T02:37:33.016Z,0.00
2019-02-22T02:38:32.999Z,0.00
2019-02-22T02:39:33.004Z,0.00
2019-02-22T02:40:32.980Z,0.00
2019-02-22T02:41:32.966Z,0.00
2019-02-22T02:42:32.957Z,0.00
2019-02-22T02:43:32.956Z,0.00
2019-02-22T02:44:32.956Z,0.00
2019-02-22T02:45:32.924Z,0.00
2019-02-22T02:46:32.920Z,0.00
2019-02-22T02:47:32.909Z,0.00
2019-02-22T02:48:32.892Z,0.00
2019-02-22T02:49:32.890Z,0.00
2019-02-22T02:50:32.887Z,0.00
2019-02-22T02:51:32.861Z,0.00
2019-02-22T02:52:32.851Z,0.00
2019-02-22T02:53:32.835Z,0.00
2019-02-22T02:54:32.828Z,0.00
2019-02-22T02:55:32.837Z,0.00
2019-02-22T02:56:32.801Z,0.00
2019-02-22T02:57:32.799Z,0.00
2019-02-22T02:58:32.787Z,0.00
2019-02-22T02:59:32.768Z,0.00
2019-02-22T03:00:32.774Z,0.00
2019-02-22T03:01:32.753Z,0.00
2019-02-22T03:02:32.739Z,0.00
2019-02-22T03:03:32.725Z,0.00
2019-02-22T03:04:32.713Z,0.00
2019-02-22T03:05:32.717Z,0.00
2019-02-22T03:06:32.692Z,0.00
2019-02-22T03:07:32.688Z,0.00
2019-02-22T03:08:32.669Z,0.00
2019-02-22T03:09:32.665Z,0.00
2019-02-22T03:10:32.664Z,0.00
2019-02-22T03:11:32.636Z,0.00
2019-02-22T03:12:32.625Z,0.00
2019-02-22T03:13:32.621Z,0.00
2019-02-22T03:14:32.604Z,0.00
2019-02-22T03:15:32.608Z,0.00
2019-02-22T03:16:32.583Z,0.00
2019-02-22T03:17:32.571Z,0.00
2019-02-22T03:18:32.559Z,0.00
2019-02-22T03:19:32.555Z,0.00
2019-02-22T03:20:32.558Z,0.00
2019-02-22T03:21:32.533Z,0.00
2019-02-22T03:22:32.522Z,0.00
2019-02-22T03:23:32.504Z,0.00
2019-02-22T03:24:32.503Z,0.00
2019-02-22T03:25:32.511Z,0.00
2019-02-22T03:26:32.474Z,0.00
2019-02-22T03:27:32.461Z,0.00
2019-02-22T03:28:32.451Z,0.00
2019-02-22T03:29:32.439Z,0.00
2019-02-22T03:30:32.454Z,0.00
2019-02-22T03:31:32.427Z,0.00
2019-02-22T03:32:32.414Z,0.00
2019-02-22T03:33:32.396Z,0.00
2019-02-22T03:34:32.385Z,0.00
2019-02-22T03:35:32.388Z,0.00
2019-02-22T03:36:32.364Z,0.00
2019-02-22T03:37:32.361Z,0.00
2019-02-22T03:38:32.341Z,0.00
2019-02-22T03:39:32.332Z,0.00
2019-02-22T03:40:32.350Z,0.00
2019-02-22T03:41:33.520Z,0.00
2019-02-22T03:42:32.297Z,0.00
2019-02-22T03:43:32.293Z,0.00
2019-02-22T03:44:32.278Z,0.00
2019-02-22T03:45:32.266Z,0.00
2019-02-22T03:46:32.270Z,0.00
2019-02-22T03:47:34.978Z,0.00
2019-02-22T03:48:32.236Z,0.00
2019-02-22T03:49:32.231Z,0.00
2019-02-22T03:50:32.218Z,0.00
2019-02-22T03:51:32.219Z,0.00
2019-02-22T03:52:32.188Z,0.00
2019-02-22T03:53:32.178Z,0.00
2019-02-22T03:54:32.167Z,0.00
2019-02-22T03:55:32.170Z,0.00
2019-02-22T03:56:32.161Z,0.00
2019-02-22T03:57:32.139Z,0.00
2019-02-22T03:58:32.122Z,0.00
2019-02-22T03:59:32.176Z,0.00
2019-02-22T04:00:32.104Z,0.00
2019-02-22T04:01:32.121Z,0.00
2019-02-22T04:02:32.086Z,0.00
2019-02-22T04:03:32.069Z,0.00
2019-02-22T04:04:32.062Z,0.00
2019-02-22T04:05:32.053Z,0.00
2019-02-22T04:06:32.050Z,0.00
2019-02-22T04:07:32.036Z,0.00
2019-02-22T04:08:32.015Z,0.00
2019-02-22T04:09:32.003Z,0.00
2019-02-22T04:10:31.995Z,0.00
2019-02-22T04:11:44.643Z,0.00
2019-02-22T04:12:32.976Z,0.00
2019-02-22T04:13:31.970Z,0.00
2019-02-22T04:14:31.949Z,0.00
2019-02-22T04:15:31.939Z,0.00
2019-02-22T04:16:31.942Z,0.00
2019-02-22T04:17:31.915Z,0.00
2019-02-22T04:18:31.903Z,0.00
2019-02-22T04:19:31.904Z,0.00
2019-02-22T04:20:31.884Z,0.00
2019-02-22T04:21:31.887Z,0.00
2019-02-22T04:22:31.864Z,0.00
2019-02-22T04:23:31.850Z,0.00
2019-02-22T04:24:31.840Z,0.00
2019-02-22T04:25:31.838Z,0.00
2019-02-22T04:26:31.835Z,0.00
2019-02-22T04:27:31.809Z,0.00
2019-02-22T04:28:31.796Z,0.00
2019-02-22T04:29:31.821Z,0.00
2019-02-22T04:30:31.774Z,0.00
2019-02-22T04:31:31.778Z,0.00
2019-02-22T04:32:31.761Z,0.00
2019-02-22T04:33:31.744Z,0.00
2019-02-22T04:34:31.729Z,0.00
2019-02-22T04:35:31.720Z,0.00
2019-02-22T04:36:31.728Z,0.00
2019-02-22T04:37:31.698Z,0.00
2019-02-22T04:38:31.692Z,0.00
2019-02-22T04:39:31.675Z,0.00
2019-02-22T04:40:31.663Z,0.00
2019-02-22T04:41:31.670Z,0.00
2019-02-22T04:42:31.644Z,0.00
2019-02-22T04:43:31.633Z,0.00
2019-02-22T04:44:31.632Z,0.00
2019-02-22T04:45:31.612Z,0.00
2019-02-22T04:46:31.616Z,0.00
2019-02-22T04:47:31.586Z,0.00
2019-02-22T04:48:31.575Z,0.00
2019-02-22T04:49:31.565Z,0.00
2019-02-22T04:50:31.594Z,0.00
2019-02-22T04:51:31.559Z,0.00
2019-02-22T04:52:31.530Z,0.00
2019-02-22T04:53:31.524Z,0.00
2019-02-22T04:54:31.513Z,0.00
2019-02-22T04:55:31.499Z,0.00
2019-02-22T04:56:31.535Z,0.00
2019-02-22T04:57:31.478Z,0.00
2019-02-22T04:58:31.466Z,0.00
2019-02-22T04:59:31.456Z,0.00
2019-02-22T05:00:31.446Z,0.00
2019-02-22T05:01:31.434Z,0.00
2019-02-22T05:02:31.442Z,0.00
2019-02-22T05:03:31.412Z,0.00
2019-02-22T05:04:31.401Z,0.00
2019-02-22T05:05:31.388Z,0.00
2019-02-22T05:06:31.383Z,0.00
2019-02-22T05:07:31.383Z,0.00
2019-02-22T05:08:31.368Z,0.00
2019-02-22T05:09:31.347Z,0.00
2019-02-22T05:10:31.335Z,0.00
2019-02-22T05:11:31.327Z,0.00
2019-02-22T05:12:31.327Z,0.00
2019-02-22T05:13:31.306Z,0.00
2019-02-22T05:14:31.301Z,0.00
2019-02-22T05:15:31.281Z,0.00
2019-02-22T05:16:31.268Z,0.00
2019-02-22T05:17:31.271Z,0.00
2019-02-22T05:18:31.246Z,0.00
2019-02-22T05:19:31.234Z,0.00
2019-02-22T05:20:31.276Z,0.00
2019-02-22T05:21:31.211Z,0.00
2019-02-22T05:22:31.217Z,0.00
2019-02-22T05:23:31.190Z,0.00
2019-02-22T05:24:31.178Z,0.00
2019-02-22T05:25:31.192Z,0.00
2019-02-22T05:26:31.164Z,0.00
2019-02-22T05:27:31.161Z,0.00
2019-02-22T05:28:31.135Z,0.00
2019-02-22T05:29:31.123Z,0.00
2019-02-22T05:30:31.112Z,0.00
2019-02-22T05:31:31.103Z,0.00
2019-02-22T05:32:31.120Z,0.00
2019-02-22T05:33:31.078Z,0.00
2019-02-22T05:34:31.067Z,0.00
2019-02-22T05:35:31.059Z,0.00
2019-02-22T05:36:31.055Z,0.00
2019-02-22T05:37:31.051Z,0.00
2019-02-22T05:38:31.031Z,0.00
2019-02-22T05:39:31.013Z,0.00
2019-02-22T05:40:31.003Z,0.00
2019-02-22T05:41:31.019Z,0.00
2019-02-22T05:42:31.010Z,0.00
2019-02-22T05:43:30.973Z,0.00
2019-02-22T05:44:30.965Z,0.00
2019-02-22T05:45:30.971Z,0.00
2019-02-22T05:46:30.940Z,0.00
2019-02-22T05:47:30.944Z,0.00
2019-02-22T05:48:30.925Z,0.00
2019-02-22T05:49:30.908Z,0.00
2019-02-22T05:50:30.902Z,0.00
2019-02-22T05:51:30.881Z,0.00
2019-02-22T05:52:30.887Z,0.00
2019-02-22T05:53:30.861Z,0.00
2019-02-22T05:54:30.854Z,0.00
2019-02-22T05:55:30.839Z,0.00
2019-02-22T05:56:30.834Z,0.00
2019-02-22T05:57:30.832Z,0.00
2019-02-22T05:58:30.811Z,0.00
2019-02-22T05:59:30.796Z,0.00
2019-02-22T06:00:30.871Z,0.00
2019-02-22T06:01:30.775Z,0.00
2019-02-22T06:02:33.579Z,0.00
2019-02-22T06:03:30.752Z,4.00
2019-02-22T06:04:30.788Z,4.00
2019-02-22T06:05:30.732Z,4.00
2019-02-22T06:06:30.723Z,0.00
2019-02-22T06:07:30.722Z,4.00
2019-02-22T06:08:30.705Z,8.00
2019-02-22T06:09:30.685Z,4.00
2019-02-22T06:10:30.673Z,8.00
2019-02-22T06:11:30.676Z,12.00
2019-02-22T06:12:34.448Z,24.00
2019-02-22T06:13:30.640Z,28.00
2019-02-22T06:14:30.640Z,24.00
2019-02-22T06:15:31.513Z,28.00
2019-02-22T06:16:30.607Z,24.00
2019-02-22T06:17:30.613Z,24.00
2019-02-22T06:18:30.586Z,28.00
2019-02-22T06:19:30.574Z,32.00
2019-02-22T06:20:30.571Z,36.00
2019-02-22T06:21:30.555Z,36.00
2019-02-22T06:22:30.558Z,36.00
2019-02-22T06:23:30.573Z,40.00
2019-02-22T06:24:30.524Z,40.00
2019-02-22T06:25:30.507Z,44.00
2019-02-22T06:26:30.599Z,40.00
2019-02-22T06:27:30.524Z,40.00
2019-02-22T06:28:30.473Z,44.00
2019-02-22T06:29:30.462Z,52.00
2019-02-22T06:30:30.451Z,56.00
2019-02-22T06:31:30.512Z,68.00
2019-02-22T06:32:30.482Z,64.00
2019-02-22T06:33:30.452Z,68.00
2019-02-22T06:34:30.422Z,68.00
2019-02-22T06:35:30.425Z,64.00
2019-02-22T06:36:30.390Z,64.00
2019-02-22T06:37:30.376Z,60.00
2019-02-22T06:38:30.393Z,64.00
2019-02-22T06:39:30.355Z,76.00
2019-02-22T06:40:30.366Z,84.00
2019-02-22T06:41:30.334Z,100.00
2019-02-22T06:42:30.327Z,116.00
2019-02-22T06:43:30.360Z,144.00
2019-02-22T06:44:30.312Z,148.00
2019-02-22T06:45:30.290Z,132.00
2019-02-22T06:46:30.278Z,132.00
2019-02-22T06:47:30.268Z,132.00
2019-02-22T06:48:30.270Z,112.00
2019-02-22T06:49:30.245Z,92.00
2019-02-22T06:50:33.785Z,84.00
2019-02-22T06:51:30.223Z,64.00
2019-02-22T06:52:30.209Z,64.00
2019-02-22T06:53:30.212Z,68.00
2019-02-22T06:54:30.190Z,84.00
2019-02-22T06:55:30.174Z,104.00
2019-02-22T06:56:30.175Z,108.00
2019-02-22T06:57:30.154Z,116.00
2019-02-22T06:58:30.157Z,116.00
2019-02-22T06:59:30.130Z,128.00
2019-02-22T07:00:30.122Z,160.00
2019-02-22T07:01:30.109Z,200.00
2019-02-22T07:02:30.104Z,184.00
2019-02-22T07:03:30.102Z,172.00
2019-02-22T07:04:30.077Z,184.00
2019-02-22T07:05:30.068Z,192.00
2019-02-22T07:06:30.057Z,188.00
2019-02-22T07:07:30.041Z,188.00
2019-02-22T07:08:30.064Z,200.00
2019-02-22T07:09:30.020Z,204.00
2019-02-22T07:10:30.009Z,216.00
2019-02-22T07:11:29.999Z,272.00
2019-02-22T07:12:29.985Z,320.00
2019-02-22T07:13:30.004Z,344.00
2019-02-22T07:14:29.971Z,312.00
2019-02-22T07:15:29.951Z,272.00
2019-02-22T07:16:29.943Z,244.00
2019-02-22T07:17:29.929Z,236.00
2019-02-22T07:18:29.922Z,236.00
2019-02-22T07:19:29.920Z,232.00
2019-02-22T07:20:29.903Z,232.00
2019-02-22T07:21:43.734Z,208.00
2019-02-22T07:22:30.871Z,208.00
2019-02-22T07:23:29.859Z,232.00
2019-02-22T07:24:29.866Z,232.00
2019-02-22T07:25:29.838Z,220.00
2019-02-22T07:26:29.835Z,220.00
2019-02-22T07:27:29.814Z,220.00
2019-02-22T07:28:29.804Z,208.00
2019-02-22T07:29:29.812Z,204.00
2019-02-22T07:30:29.785Z,196.00
2019-02-22T07:31:29.769Z,200.00
2019-02-22T07:32:29.766Z,196.00
2019-02-22T07:33:29.745Z,208.00
2019-02-22T07:34:29.762Z,220.00
2019-02-22T07:35:29.729Z,216.00
2019-02-22T07:36:29.737Z,232.00
2019-02-22T07:37:29.703Z,252.00
2019-02-22T07:38:29.708Z,224.00
2019-02-22T07:39:29.696Z,208.00
2019-02-22T07:40:29.672Z,220.00
2019-02-22T07:41:29.658Z,240.00
2019-02-22T07:42:29.645Z,252.00
2019-02-22T07:43:29.633Z,236.00
2019-02-22T07:44:29.644Z,220.00
2019-02-22T07:45:29.615Z,220.00
2019-02-22T07:46:29.602Z,228.00
2019-02-22T07:47:29.589Z,244.00
2019-02-22T07:48:29.579Z,256.00
2019-02-22T07:49:29.588Z,252.00
2019-02-22T07:50:29.566Z,244.00
2019-02-22T07:51:29.543Z,228.00
2019-02-22T07:52:29.534Z,212.00
2019-02-22T07:53:29.525Z,228.00
2019-02-22T07:54:29.524Z,260.00
2019-02-22T07:55:29.497Z,308.00
2019-02-22T07:56:29.491Z,316.00
2019-02-22T07:57:29.477Z,280.00
2019-02-22T07:58:29.462Z,268.00
2019-02-22T07:59:29.466Z,240.00
2019-02-22T08:00:29.439Z,232.00
2019-02-22T08:01:29.430Z,240.00
2019-02-22T08:02:29.423Z,256.00
2019-02-22T08:03:29.409Z,268.00
2019-02-22T08:04:29.411Z,264.00
2019-02-22T08:05:29.383Z,264.00
2019-02-22T08:06:29.387Z,248.00
2019-02-22T08:07:29.361Z,232.00
2019-02-22T08:08:29.360Z,212.00
2019-02-22T08:09:29.352Z,212.00
2019-02-22T08:10:29.326Z,208.00
2019-02-22T08:11:29.315Z,240.00
2019-02-22T08:12:29.302Z,260.00
2019-02-22T08:13:29.294Z,284.00
2019-02-22T08:14:29.308Z,264.00
2019-02-22T08:15:29.270Z,256.00
2019-02-22T08:16:29.258Z,260.00
2019-02-22T08:17:29.246Z,264.00
2019-02-22T08:18:29.235Z,284.00
2019-02-22T08:19:29.242Z,288.00
2019-02-22T08:20:29.220Z,308.00
2019-02-22T08:21:29.201Z,308.00
2019-02-22T08:22:29.190Z,316.00
2019-02-22T08:23:29.181Z,324.00
2019-02-22T08:24:29.196Z,312.00
2019-02-22T08:25:29.157Z,316.00
2019-02-22T08:26:29.154Z,308.00
2019-02-22T08:27:29.136Z,284.00
2019-02-22T08:28:29.124Z,260.00
2019-02-22T08:29:29.112Z,272.00
2019-02-22T08:30:29.116Z,324.00
2019-02-22T08:31:29.094Z,344.00
2019-02-22T08:32:29.085Z,360.00
2019-02-22T08:33:29.069Z,376.00
2019-02-22T08:34:29.057Z,340.00
2019-02-22T08:35:29.061Z,300.00
2019-02-22T08:36:29.035Z,280.00
2019-02-22T08:37:29.025Z,268.00
2019-02-22T08:38:29.060Z,288.00
2019-02-22T08:39:29.001Z,304.00
2019-02-22T08:40:29.007Z,308.00
2019-02-22T08:41:28.979Z,316.00
2019-02-22T08:42:28.968Z,332.00
2019-02-22T08:43:31.838Z,328.00
2019-02-22T08:44:28.958Z,300.00
2019-02-22T08:45:28.949Z,288.00
2019-02-22T08:46:28.923Z,280.00
2019-02-22T08:47:28.927Z,284.00
2019-02-22T08:48:28.900Z,316.00
2019-02-22T08:49:28.889Z,336.00
2019-02-22T08:50:28.903Z,396.00
2019-02-22T08:51:28.868Z,460.00
2019-02-22T08:52:28.857Z,424.00
2019-02-22T08:53:28.850Z,404.00
2019-02-22T08:54:28.835Z,408.00
2019-02-22T08:55:28.838Z,440.00
2019-02-22T08:56:28.821Z,452.00
2019-02-22T08:57:28.802Z,516.00
2019-02-22T08:58:28.789Z,520.00
2019-02-22T08:59:28.778Z,460.00
2019-02-22T09:00:28.783Z,408.00
2019-02-22T09:01:28.756Z,400.00
2019-02-22T09:02:28.750Z,412.00
2019-02-22T09:03:28.733Z,448.00
2019-02-22T09:04:28.723Z,440.00
2019-02-22T09:05:28.730Z,448.00
2019-02-22T09:06:28.700Z,408.00
2019-02-22T09:07:28.692Z,392.00
2019-02-22T09:08:28.685Z,368.00
2019-02-22T09:09:28.667Z,344.00
2019-02-22T09:10:28.671Z,320.00
2019-02-22T09:11:28.647Z,308.00
2019-02-22T09:12:28.632Z,304.00
2019-02-22T09:13:28.625Z,320.00
2019-02-22T09:14:28.619Z,328.00
2019-02-22T09:15:28.615Z,320.00
2019-02-22T09:16:28.587Z,312.00
2019-02-22T09:17:28.580Z,332.00
2019-02-22T09:18:28.569Z,360.00
2019-02-22T09:19:28.566Z,400.00
2019-02-22T09:20:28.587Z,428.00
2019-02-22T09:21:28.533Z,468.00
2019-02-22T09:22:28.522Z,460.00
2019-02-22T09:23:28.511Z,460.00
2019-02-22T09:24:28.500Z,424.00
2019-02-22T09:25:28.506Z,424.00
2019-02-22T09:26:28.482Z,420.00
2019-02-22T09:27:28.467Z,408.00
2019-02-22T09:28:28.455Z,436.00
2019-02-22T09:29:28.445Z,452.00
2019-02-22T09:30:28.450Z,444.00
2019-02-22T09:31:28.422Z,428.00
2019-02-22T09:32:28.436Z,444.00
2019-02-22T09:33:28.399Z,420.00
2019-02-22T09:34:28.389Z,440.00
2019-02-22T09:35:28.393Z,452.00
2019-02-22T09:36:28.370Z,440.00
2019-02-22T09:37:28.355Z,448.00
2019-02-22T09:38:28.349Z,520.00
2019-02-22T09:39:28.335Z,676.00
2019-02-22T09:40:28.337Z,844.00
2019-02-22T09:41:28.313Z,944.00
2019-02-22T09:42:28.300Z,1044.00
2019-02-22T09:43:28.289Z,1112.00
2019-02-22T09:44:28.283Z,1124.00
2019-02-22T09:45:28.290Z,1240.00
2019-02-22T09:46:28.257Z,1300.00
2019-02-22T09:47:28.251Z,1340.00
2019-02-22T09:48:28.234Z,1360.00
2019-02-22T09:49:28.220Z,1276.00
2019-02-22T09:50:28.229Z,1192.00
2019-02-22T09:51:28.215Z,1108.00
2019-02-22T09:52:28.187Z,1024.00
2019-02-22T09:53:28.176Z,896.00
2019-02-22T09:54:28.169Z,776.00
2019-02-22T09:55:28.155Z,696.00
2019-02-22T09:56:28.168Z,764.00
2019-02-22T09:57:28.131Z,764.00
2019-02-22T09:58:28.122Z,720.00
2019-02-22T09:59:28.110Z,600.00
2019-02-22T10:00:28.099Z,536.00
2019-02-22T10:01:28.102Z,552.00
2019-02-22T10:02:28.080Z,564.00
2019-02-22T10:03:28.067Z,512.00
2019-02-22T10:04:28.183Z,504.00
2019-02-22T10:05:28.042Z,544.00
2019-02-22T10:06:28.052Z,640.00
2019-02-22T10:07:28.021Z,816.00
2019-02-22T10:08:28.016Z,1028.00
2019-02-22T10:09:27.998Z,1176.00
2019-02-22T10:10:27.988Z,1292.00
2019-02-22T10:11:27.992Z,1340.00
2019-02-22T10:12:27.967Z,1128.00
2019-02-22T10:13:27.954Z,948.00
2019-02-22T10:14:28.637Z,848.00
2019-02-22T10:15:27.933Z,768.00
2019-02-22T10:16:27.938Z,808.00
2019-02-22T10:17:27.932Z,1020.00
2019-02-22T10:18:27.902Z,1024.00
2019-02-22T10:19:27.888Z,1032.00
2019-02-22T10:20:27.885Z,1116.00
2019-02-22T10:21:27.881Z,1100.00
2019-02-22T10:22:27.856Z,1056.00
2019-02-22T10:23:27.843Z,1032.00
2019-02-22T10:24:27.832Z,968.00
2019-02-22T10:25:27.832Z,816.00
2019-02-22T10:26:27.832Z,748.00
2019-02-22T10:27:27.799Z,688.00
2019-02-22T10:28:27.791Z,632.00
2019-02-22T10:29:27.774Z,600.00
2019-02-22T10:30:27.764Z,560.00
2019-02-22T10:31:27.768Z,584.00
2019-02-22T10:32:27.751Z,584.00
2019-02-22T10:33:36.173Z,568.00
2019-02-22T10:34:28.718Z,536.00
2019-02-22T10:35:27.709Z,564.00
2019-02-22T10:36:27.714Z,556.00
2019-02-22T10:37:27.686Z,476.00
2019-02-22T10:38:27.682Z,460.00
2019-02-22T10:39:27.664Z,488.00
2019-02-22T10:40:27.661Z,472.00
2019-02-22T10:41:27.656Z,440.00
2019-02-22T10:42:27.630Z,392.00
2019-02-22T10:43:27.620Z,344.00
2019-02-22T10:44:27.619Z,392.00
2019-02-22T10:45:27.597Z,476.00
2019-02-22T10:46:27.606Z,556.00
2019-02-22T10:47:27.574Z,656.00
2019-02-22T10:48:27.564Z,744.00
2019-02-22T10:49:27.554Z,844.00
2019-02-22T10:50:27.552Z,836.00
2019-02-22T10:51:27.546Z,752.00
2019-02-22T10:52:27.521Z,624.00
2019-02-22T10:53:27.510Z,520.00
2019-02-22T10:54:27.497Z,580.00
2019-02-22T10:55:27.486Z,612.00
2019-02-22T10:56:28.360Z,632.00
2019-02-22T10:57:27.478Z,660.00
2019-02-22T10:58:27.453Z,708.00
2019-02-22T10:59:27.441Z,760.00
2019-02-22T11:00:27.429Z,804.00
2019-02-22T11:01:27.453Z,832.00
2019-02-22T11:02:27.424Z,832.00
2019-02-22T11:03:27.403Z,840.00
2019-02-22T11:04:27.389Z,884.00
2019-02-22T11:05:27.373Z,940.00
2019-02-22T11:06:27.378Z,996.00
2019-02-22T11:07:27.351Z,1040.00
2019-02-22T11:08:27.346Z,1088.00
2019-02-22T11:09:27.331Z,1140.00
2019-02-22T11:10:27.319Z,1184.00
2019-02-22T11:11:27.324Z,1216.00
2019-02-22T11:12:27.297Z,1236.00
2019-02-22T11:13:27.286Z,1272.00
2019-02-22T11:14:29.380Z,1324.00
2019-02-22T11:15:27.263Z,1376.00
2019-02-22T11:16:27.270Z,1452.00
2019-02-22T11:17:27.243Z,1536.00
2019-02-22T11:18:27.242Z,1608.00
2019-02-22T11:19:27.219Z,1720.00
2019-02-22T11:20:27.216Z,1860.00
2019-02-22T11:21:27.218Z,2044.00
2019-02-22T11:22:27.190Z,2296.00
2019-02-22T11:23:27.179Z,2596.00
2019-02-22T11:24:27.179Z,2864.00
2019-02-22T11:25:27.153Z,3112.00
2019-02-22T11:26:27.166Z,3312.00
2019-02-22T11:27:27.131Z,3392.00
2019-02-22T11:28:27.122Z,3512.00
2019-02-22T11:29:27.111Z,3512.00
2019-02-22T11:30:27.098Z,3572.00
2019-02-22T11:31:27.099Z,3804.00
2019-02-22T11:32:27.203Z,3740.00
2019-02-22T11:33:27.063Z,3932.00
2019-02-22T11:34:27.053Z,4380.00
2019-02-22T11:35:27.113Z,4872.00
2019-02-22T11:36:27.058Z,5140.00
2019-02-22T11:37:27.026Z,5108.00
2019-02-22T11:38:27.022Z,5280.00
2019-02-22T11:39:26.996Z,5932.00
2019-02-22T11:40:26.988Z,7568.00
2019-02-22T11:41:26.977Z,6004.00
2019-02-22T11:42:26.977Z,4700.00
2019-02-22T11:43:26.952Z,8048.00
2019-02-22T11:44:26.945Z,6396.00
2019-02-22T11:45:26.932Z,6112.00
2019-02-22T11:46:26.920Z,4212.00
2019-02-22T11:47:26.938Z,4108.00
2019-02-22T11:48:26.898Z,4392.00
2019-02-22T11:49:26.887Z,4624.00
2019-02-22T11:50:26.885Z,4860.00
2019-02-22T11:51:26.868Z,4472.00
2019-02-22T11:52:26.879Z,4628.00
2019-02-22T11:53:26.846Z,4892.00
2019-02-22T11:54:26.837Z,4400.00
2019-02-22T11:55:26.823Z,4568.00
2019-02-22T11:56:26.818Z,5084.00
2019-02-22T11:57:26.820Z,5284.00
2019-02-22T11:58:26.795Z,4972.00
2019-02-22T11:59:26.780Z,5028.00
2019-02-22T12:00:26.779Z,5300.00
2019-02-22T12:01:26.759Z,4624.00
2019-02-22T12:02:26.771Z,4380.00
2019-02-22T12:03:26.738Z,4860.00
2019-02-22T12:04:26.726Z,4056.00
2019-02-22T12:05:26.714Z,3892.00
2019-02-22T12:06:26.703Z,4248.00
2019-02-22T12:07:26.709Z,4304.00
2019-02-22T12:08:26.695Z,3876.00
2019-02-22T12:09:26.672Z,3800.00
2019-02-22T12:10:26.670Z,3760.00
2019-02-22T12:11:26.650Z,3824.00
2019-02-22T12:12:26.655Z,4016.00
2019-02-22T12:13:26.628Z,4804.00
2019-02-22T12:14:26.624Z,9884.00
2019-02-22T12:15:26.605Z,4100.00
2019-02-22T12:16:26.595Z,4496.00
2019-02-22T12:17:26.599Z,5080.00
2019-02-22T12:18:26.573Z,5264.00
2019-02-22T12:19:26.561Z,5252.00
2019-02-22T12:20:26.557Z,10104.00
2019-02-22T12:21:26.539Z,23520.00
2019-02-22T12:22:26.588Z,30080.00
2019-02-22T12:23:26.540Z,36064.00
2019-02-22T12:24:26.505Z,38752.00
2019-02-22T12:25:26.493Z,34688.00
2019-02-22T12:26:26.494Z,24032.00
2019-02-22T12:27:26.489Z,35616.00
2019-02-22T12:28:26.459Z,27488.00
2019-02-22T12:29:26.450Z,24160.00
2019-02-22T12:30:26.445Z,15556.00
2019-02-22T12:31:26.427Z,38176.00
2019-02-22T12:32:26.440Z,37024.00
2019-02-22T12:33:26.404Z,36352.00
2019-02-22T12:34:26.394Z,31648.00
2019-02-22T12:35:26.382Z,16288.00
2019-02-22T12:36:26.373Z,21024.00
2019-02-22T12:37:26.378Z,28864.00
2019-02-22T12:38:28.180Z,8220.00
2019-02-22T12:39:26.341Z,8524.00
2019-02-22T12:40:26.404Z,5324.00
2019-02-22T12:41:26.315Z,4764.00
2019-02-22T12:42:26.318Z,4992.00
2019-02-22T12:43:26.341Z,5048.00
2019-02-22T12:44:26.286Z,4916.00
2019-02-22T12:45:26.274Z,4828.00
2019-02-22T12:46:26.268Z,4780.00
2019-02-22T12:47:26.263Z,5052.00
2019-02-22T12:48:26.238Z,6576.00